Lagoa Alegre, Brazil
Current Conditions -  °F | °C
As of 11:00 AM on Tuesday 27 Jan 2015 (Local Time) from SBTE Reporting Station
Few Clouds Few Clouds  
Wind Chill: 90°   Ceiling: Unl
Heat Index: 91°   Visibility: 6mi
Dew Point: 64°   Wind: 7mph
Humidity: 43%   Direction: 130°SE
Pressure: 29.91"   Gusts: NA
Location:  4.52°S, 42.62°W
Report Text: SBTE 271400Z 13006KT 9999 FEW025 32/18 Q1013
Loading
Personal Weather Stations






























Interactive Weather Map New forecast layout! Learn more

10-Day Weather Forecast

Advertisements
Track Severe Weather on mobile